createdAt,value
2017-07-19T00:00:57.574Z,955.55
2017-07-19T00:01:57.563Z,955.58
2017-07-19T00:02:57.559Z,955.57
2017-07-19T00:03:57.555Z,955.55
2017-07-19T00:04:57.555Z,955.57
2017-07-19T00:05:57.545Z,955.54
2017-07-19T00:06:57.541Z,955.5
2017-07-19T00:07:57.561Z,955.49
2017-07-19T00:08:57.533Z,955.46
2017-07-19T00:09:57.527Z,955.45
2017-07-19T00:10:57.525Z,955.42
2017-07-19T00:11:57.521Z,955.43
2017-07-19T00:12:57.521Z,955.42
2017-07-19T00:13:57.509Z,955.4
2017-07-19T00:14:57.506Z,955.37
2017-07-19T00:15:57.501Z,955.35
2017-07-19T00:16:57.497Z,955.34
2017-07-19T00:17:57.499Z,955.31
2017-07-19T00:18:57.488Z,955.33
2017-07-19T00:19:57.483Z,955.32
2017-07-19T00:20:57.478Z,955.34
2017-07-19T00:21:57.473Z,955.31
2017-07-19T00:22:57.469Z,955.3
2017-07-19T00:23:57.464Z,955.3
2017-07-19T00:24:57.459Z,955.28
2017-07-19T00:25:57.454Z,955.28
2017-07-19T00:26:57.450Z,955.28
2017-07-19T00:27:57.451Z,955.24
2017-07-19T00:28:57.441Z,955.23
2017-07-19T00:29:57.438Z,955.21
2017-07-19T00:30:57.433Z,955.24
2017-07-19T00:31:57.426Z,955.25
2017-07-19T00:32:57.439Z,955.27
2017-07-19T00:33:57.441Z,955.21
2017-07-19T00:34:57.415Z,955.25
2017-07-19T00:35:57.409Z,955.25
2017-07-19T00:36:57.404Z,955.27
2017-07-19T00:37:57.402Z,955.18
2017-07-19T00:38:57.394Z,955.2
2017-07-19T00:39:57.391Z,955.21
2017-07-19T00:40:57.386Z,955.18
2017-07-19T00:41:57.381Z,955.17
2017-07-19T00:42:57.376Z,955.14
2017-07-19T00:43:57.372Z,955.16
2017-07-19T00:44:57.375Z,955.15
2017-07-19T00:45:57.363Z,955.16
2017-07-19T00:46:57.356Z,955.09
2017-07-19T00:47:57.352Z,955.1
2017-07-19T00:48:57.348Z,955.1
2017-07-19T00:49:57.343Z,955.1
2017-07-19T00:50:57.343Z,955.13
2017-07-19T00:51:57.333Z,955.1
2017-07-19T00:52:57.346Z,955.11
2017-07-19T00:53:57.324Z,955.14
2017-07-19T00:54:57.319Z,955.07
2017-07-19T00:55:57.337Z,955.08
2017-07-19T00:56:57.312Z,955.08
2017-07-19T00:57:57.304Z,955.07
2017-07-19T00:58:57.300Z,955.05
2017-07-19T00:59:57.298Z,955.05
2017-07-19T01:00:57.292Z,955
2017-07-19T01:01:57.286Z,955.04
2017-07-19T01:02:57.281Z,955
2017-07-19T01:03:57.295Z,955.01
2017-07-19T01:04:57.271Z,955.02
2017-07-19T01:05:57.265Z,954.98
2017-07-19T01:06:57.262Z,955.03
2017-07-19T01:07:57.268Z,955.01
2017-07-19T01:08:57.250Z,954.98
2017-07-19T01:09:57.248Z,955
2017-07-19T01:10:57.244Z,955.01
2017-07-19T01:11:57.238Z,954.99
2017-07-19T01:12:57.233Z,955
2017-07-19T01:13:57.229Z,954.98
2017-07-19T01:14:57.223Z,955
2017-07-19T01:15:57.217Z,954.94
2017-07-19T01:16:57.214Z,954.94
2017-07-19T01:17:57.227Z,954.93
2017-07-19T01:18:57.206Z,954.91
2017-07-19T01:19:57.201Z,954.94
2017-07-19T01:20:57.195Z,954.9
2017-07-19T01:21:57.187Z,954.92
2017-07-19T01:22:57.184Z,954.94
2017-07-19T01:23:57.181Z,954.9
2017-07-19T01:24:57.175Z,954.9
2017-07-19T01:25:57.169Z,954.86
2017-07-19T01:26:57.165Z,954.86
2017-07-19T01:27:57.159Z,954.85
2017-07-19T01:28:57.158Z,954.79
2017-07-19T01:29:57.150Z,954.81
2017-07-19T01:30:57.145Z,954.78
2017-07-19T01:31:57.141Z,954.77
2017-07-19T01:32:57.136Z,954.79
2017-07-19T01:33:57.161Z,954.78
2017-07-19T01:34:57.125Z,954.78
2017-07-19T01:35:57.121Z,954.8
2017-07-19T01:36:57.116Z,954.8
2017-07-19T01:37:57.111Z,954.8
2017-07-19T01:38:57.106Z,954.77
2017-07-19T01:39:57.102Z,954.78
2017-07-19T01:40:57.100Z,954.78
2017-07-19T01:41:57.090Z,954.77
2017-07-19T01:42:57.093Z,954.8
2017-07-19T01:43:57.083Z,954.74
2017-07-19T01:44:57.078Z,954.76
2017-07-19T01:45:57.073Z,954.72
2017-07-19T01:46:57.069Z,954.72
2017-07-19T01:47:57.062Z,954.71
2017-07-19T01:48:57.058Z,954.7
2017-07-19T01:49:57.052Z,954.7
2017-07-19T01:50:57.047Z,954.69
2017-07-19T01:51:57.042Z,954.67
2017-07-19T01:52:57.036Z,954.67
2017-07-19T01:53:57.031Z,954.68
2017-07-19T01:54:57.028Z,954.66
2017-07-19T01:55:57.023Z,954.67
2017-07-19T01:56:57.027Z,954.67
2017-07-19T01:57:57.036Z,954.64
2017-07-19T01:58:57.008Z,954.63
2017-07-19T01:59:57.001Z,954.62
2017-07-19T02:00:57.012Z,954.57
2017-07-19T02:01:56.994Z,954.56
2017-07-19T02:02:56.988Z,954.51
2017-07-19T02:03:56.997Z,954.51
2017-07-19T02:04:56.981Z,954.49
2017-07-19T02:05:56.975Z,954.47
2017-07-19T02:06:56.969Z,954.47
2017-07-19T02:07:56.964Z,954.47
2017-07-19T02:08:56.963Z,954.49
2017-07-19T02:09:56.954Z,954.46
2017-07-19T02:10:56.949Z,954.46
2017-07-19T02:11:56.953Z,954.46
2017-07-19T02:12:56.939Z,954.45
2017-07-19T02:13:56.935Z,954.44
2017-07-19T02:14:56.935Z,954.44
2017-07-19T02:15:56.937Z,954.43
2017-07-19T02:16:56.921Z,954.44
2017-07-19T02:17:56.914Z,954.43
2017-07-19T02:18:56.923Z,954.4
2017-07-19T02:19:56.906Z,954.39
2017-07-19T02:20:56.901Z,954.4
2017-07-19T02:21:56.895Z,954.4
2017-07-19T02:22:56.890Z,954.4
2017-07-19T02:23:56.907Z,954.37
2017-07-19T02:24:56.881Z,954.34
2017-07-19T02:25:56.902Z,954.37
2017-07-19T02:26:56.873Z,954.38
2017-07-19T02:27:56.867Z,954.34
2017-07-19T02:28:56.860Z,954.37
2017-07-19T02:29:56.874Z,954.35
2017-07-19T02:30:56.852Z,954.32
2017-07-19T02:31:56.847Z,954.31
2017-07-19T02:32:56.843Z,954.3
2017-07-19T02:33:56.838Z,954.31
2017-07-19T02:34:56.832Z,954.29
2017-07-19T02:35:56.829Z,954.29
2017-07-19T02:36:56.825Z,954.32
2017-07-19T02:37:56.817Z,954.32
2017-07-19T02:38:56.812Z,954.35
2017-07-19T02:39:56.807Z,954.33
2017-07-19T02:40:56.803Z,954.28
2017-07-19T02:41:56.798Z,954.31
2017-07-19T02:42:56.793Z,954.33
2017-07-19T02:43:56.787Z,954.3
2017-07-19T02:44:56.784Z,954.32
2017-07-19T02:45:56.779Z,954.3
2017-07-19T02:46:56.772Z,954.28
2017-07-19T02:47:56.773Z,954.3
2017-07-19T02:48:56.765Z,954.26
2017-07-19T02:49:56.769Z,954.29
2017-07-19T02:50:56.753Z,954.27
2017-07-19T02:51:56.749Z,954.27
2017-07-19T02:52:56.745Z,954.28
2017-07-19T02:53:56.740Z,954.29
2017-07-19T02:54:56.736Z,954.32
2017-07-19T02:55:56.729Z,954.33
2017-07-19T02:56:56.726Z,954.34
2017-07-19T02:57:56.719Z,954.39
2017-07-19T02:58:56.715Z,954.42
2017-07-19T02:59:56.710Z,954.41
2017-07-19T03:00:56.706Z,954.41
2017-07-19T03:01:56.701Z,954.43
2017-07-19T03:02:56.697Z,954.5
2017-07-19T03:03:56.691Z,954.45
2017-07-19T03:04:56.685Z,954.49
2017-07-19T03:05:56.698Z,954.53
2017-07-19T03:06:56.675Z,954.58
2017-07-19T03:07:56.670Z,954.56
2017-07-19T03:08:56.665Z,954.56
2017-07-19T03:09:56.675Z,954.63
2017-07-19T03:10:56.656Z,954.59
2017-07-19T03:11:56.652Z,954.59
2017-07-19T03:12:56.646Z,954.63
2017-07-19T03:13:56.641Z,954.58
2017-07-19T03:14:56.646Z,954.65
2017-07-19T03:15:56.631Z,954.65
2017-07-19T03:16:56.626Z,954.68
2017-07-19T03:17:56.630Z,954.69
2017-07-19T03:18:56.617Z,954.7
2017-07-19T03:19:56.619Z,954.71
2017-07-19T03:20:56.607Z,954.69
2017-07-19T03:21:56.603Z,954.7
2017-07-19T03:22:56.597Z,954.71
2017-07-19T03:23:56.593Z,954.72
2017-07-19T03:24:56.585Z,954.68
2017-07-19T03:25:56.581Z,954.72
2017-07-19T03:26:56.578Z,954.68
2017-07-19T03:27:56.575Z,954.71
2017-07-19T03:28:56.567Z,954.67
2017-07-19T03:29:56.563Z,954.72
2017-07-19T03:30:56.556Z,954.71
2017-07-19T03:31:56.553Z,954.73
2017-07-19T03:32:56.547Z,954.72
2017-07-19T03:33:56.546Z,954.77
2017-07-19T03:34:56.568Z,954.79
2017-07-19T03:35:56.531Z,954.81
2017-07-19T03:36:56.532Z,954.81
2017-07-19T03:37:56.524Z,954.85
2017-07-19T03:38:56.517Z,954.86
2017-07-19T03:39:56.514Z,954.84
2017-07-19T03:40:56.510Z,954.86
2017-07-19T03:41:56.502Z,954.82
2017-07-19T03:42:56.498Z,954.84
2017-07-19T03:43:56.493Z,954.78
2017-07-19T03:44:56.489Z,954.81
2017-07-19T03:45:56.482Z,954.79
2017-07-19T03:46:56.477Z,954.77
2017-07-19T03:47:56.472Z,954.78
2017-07-19T03:48:56.470Z,954.76
2017-07-19T03:49:56.461Z,954.74
2017-07-19T03:50:56.458Z,954.75
2017-07-19T03:51:56.453Z,954.75
2017-07-19T03:52:56.448Z,954.73
2017-07-19T03:53:56.443Z,954.72
2017-07-19T03:54:56.438Z,954.66
2017-07-19T03:55:56.433Z,954.64
2017-07-19T03:56:56.427Z,954.63
2017-07-19T03:57:56.428Z,954.7
2017-07-19T03:58:56.419Z,954.68
2017-07-19T03:59:56.414Z,954.65
2017-07-19T04:00:56.408Z,954.68
2017-07-19T04:01:56.409Z,954.68
2017-07-19T04:02:56.421Z,954.68
2017-07-19T04:03:56.395Z,954.72
2017-07-19T04:04:56.389Z,954.7
2017-07-19T04:05:56.383Z,954.67
2017-07-19T04:06:56.381Z,954.65
2017-07-19T04:07:56.375Z,954.68
2017-07-19T04:08:56.373Z,954.65
2017-07-19T04:09:56.368Z,954.6
2017-07-19T04:10:56.361Z,954.61
2017-07-19T04:11:56.377Z,954.62
2017-07-19T04:12:56.352Z,954.57
2017-07-19T04:13:56.356Z,954.59
2017-07-19T04:14:56.342Z,954.56
2017-07-19T04:15:56.338Z,954.59
2017-07-19T04:16:56.333Z,954.6
2017-07-19T04:17:56.330Z,954.61
2017-07-19T04:18:56.323Z,954.59
2017-07-19T04:19:56.345Z,954.6
2017-07-19T04:20:56.320Z,954.59
2017-07-19T04:21:56.325Z,954.55
2017-07-19T04:22:56.311Z,954.58
2017-07-19T04:23:56.304Z,954.59
2017-07-19T04:24:56.301Z,954.61
2017-07-19T04:25:56.295Z,954.62
2017-07-19T04:26:56.296Z,954.62
2017-07-19T04:27:56.287Z,954.63
2017-07-19T04:28:56.283Z,954.61
2017-07-19T04:29:56.279Z,954.64
2017-07-19T04:30:56.275Z,954.67
2017-07-19T04:31:56.270Z,954.66
2017-07-19T04:32:56.266Z,954.67
2017-07-19T04:33:56.262Z,954.63
2017-07-19T04:34:56.257Z,954.66
2017-07-19T04:35:56.254Z,954.66
2017-07-19T04:36:56.249Z,954.67
2017-07-19T04:37:56.245Z,954.67
2017-07-19T04:38:56.241Z,954.67
2017-07-19T04:39:56.238Z,954.63
2017-07-19T04:40:56.233Z,954.65
2017-07-19T04:41:56.230Z,954.65
2017-07-19T04:42:56.227Z,954.68
2017-07-19T04:43:56.223Z,954.65
2017-07-19T04:44:56.219Z,954.59
2017-07-19T04:45:56.216Z,954.62
2017-07-19T04:46:56.216Z,954.61
2017-07-19T04:47:56.209Z,954.63
2017-07-19T04:48:56.204Z,954.65
2017-07-19T04:49:56.201Z,954.63
2017-07-19T04:50:56.198Z,954.61
2017-07-19T04:51:56.196Z,954.65
2017-07-19T04:52:56.189Z,954.6
2017-07-19T04:53:56.187Z,954.63
2017-07-19T04:54:56.186Z,954.63
2017-07-19T04:55:56.182Z,954.61
2017-07-19T04:56:56.178Z,954.6
2017-07-19T04:57:56.174Z,954.55
2017-07-19T04:58:56.183Z,954.54
2017-07-19T04:59:56.167Z,954.52
2017-07-19T05:00:56.165Z,954.53
2017-07-19T05:01:56.161Z,954.54
2017-07-19T05:02:56.158Z,954.55
2017-07-19T05:03:56.155Z,954.6
2017-07-19T05:04:56.154Z,954.6
2017-07-19T05:05:56.162Z,954.61
2017-07-19T05:06:56.146Z,954.57
2017-07-19T05:07:56.142Z,954.59
2017-07-19T05:08:56.141Z,954.63
2017-07-19T05:09:56.138Z,954.63
2017-07-19T05:10:56.134Z,954.64
2017-07-19T05:11:56.130Z,954.62
2017-07-19T05:12:56.130Z,954.68
2017-07-19T05:13:56.126Z,954.63
2017-07-19T05:14:56.144Z,954.63
2017-07-19T05:15:56.121Z,954.61
2017-07-19T05:16:56.116Z,954.64
2017-07-19T05:17:56.114Z,954.59
2017-07-19T05:18:56.114Z,954.59
2017-07-19T05:19:56.112Z,954.58
2017-07-19T05:20:56.106Z,954.61
2017-07-19T05:21:56.120Z,954.59
2017-07-19T05:22:56.103Z,954.6
2017-07-19T05:23:56.100Z,954.61
2017-07-19T05:24:56.097Z,954.57
2017-07-19T05:25:56.093Z,954.59
2017-07-19T05:26:56.094Z,954.62
2017-07-19T05:27:56.088Z,954.6
2017-07-19T05:28:56.088Z,954.61
2017-07-19T05:29:56.084Z,954.62
2017-07-19T05:30:56.083Z,954.6
2017-07-19T05:31:56.079Z,954.63
2017-07-19T05:32:56.079Z,954.61
2017-07-19T05:33:56.076Z,954.59
2017-07-19T05:34:56.074Z,954.61
2017-07-19T05:35:56.071Z,954.57
2017-07-19T05:36:56.075Z,954.59
2017-07-19T05:37:56.079Z,954.57
2017-07-19T05:38:56.064Z,954.63
2017-07-19T05:39:56.080Z,954.62
2017-07-19T05:40:56.059Z,954.64
2017-07-19T05:41:56.061Z,954.64
2017-07-19T05:42:56.054Z,954.63
2017-07-19T05:43:56.053Z,954.62
2017-07-19T05:44:56.051Z,954.64
2017-07-19T05:45:56.049Z,954.63
2017-07-19T05:46:56.047Z,954.69
2017-07-19T05:47:56.045Z,954.68
2017-07-19T05:48:56.043Z,954.69
2017-07-19T05:49:56.041Z,954.72
2017-07-19T05:50:56.060Z,954.71
2017-07-19T05:51:56.037Z,954.71
2017-07-19T05:52:56.034Z,954.72
2017-07-19T05:53:56.033Z,954.74
2017-07-19T05:54:56.032Z,954.72
2017-07-19T05:55:56.030Z,954.74
2017-07-19T05:56:56.027Z,954.72
2017-07-19T05:57:56.027Z,954.74
2017-07-19T05:58:56.025Z,954.7
2017-07-19T05:59:56.022Z,954.71
2017-07-19T06:00:56.022Z,954.7
2017-07-19T06:01:56.020Z,954.71
2017-07-19T06:02:56.032Z,954.71
2017-07-19T06:03:56.017Z,954.74
2017-07-19T06:04:56.015Z,954.74
2017-07-19T06:05:56.013Z,954.77
2017-07-19T06:06:56.011Z,954.73
2017-07-19T06:07:56.009Z,954.77
2017-07-19T06:08:56.009Z,954.76
2017-07-19T06:09:56.008Z,954.73
2017-07-19T06:10:56.006Z,954.74
2017-07-19T06:11:56.005Z,954.76
2017-07-19T06:12:56.003Z,954.74
2017-07-19T06:13:56.003Z,954.74
2017-07-19T06:14:56.002Z,954.72
2017-07-19T06:15:55.998Z,954.73
2017-07-19T06:16:55.999Z,954.72
2017-07-19T06:17:55.998Z,954.73
2017-07-19T06:18:55.995Z,954.7
2017-07-19T06:19:56.000Z,954.68
2017-07-19T06:20:55.994Z,954.71
2017-07-19T06:21:55.994Z,954.71
2017-07-19T06:22:55.991Z,954.71
2017-07-19T06:23:55.992Z,954.72
2017-07-19T06:24:55.989Z,954.74
2017-07-19T06:25:55.990Z,954.73
2017-07-19T06:26:55.992Z,954.7
2017-07-19T06:27:55.993Z,954.73
2017-07-19T06:28:55.998Z,954.7
2017-07-19T06:29:55.984Z,954.71
2017-07-19T06:30:56.033Z,954.69
2017-07-19T06:31:55.983Z,954.65
2017-07-19T06:32:55.984Z,954.66
2017-07-19T06:33:55.980Z,954.68
2017-07-19T06:34:55.981Z,954.63
2017-07-19T06:35:55.980Z,954.64
2017-07-19T06:36:55.988Z,954.65
2017-07-19T06:37:55.977Z,954.69
2017-07-19T06:38:55.977Z,954.65
2017-07-19T06:39:55.982Z,954.63
2017-07-19T06:40:55.975Z,954.68
2017-07-19T06:41:55.976Z,954.65
2017-07-19T06:42:55.976Z,954.7
2017-07-19T06:43:55.975Z,954.73
2017-07-19T06:44:55.974Z,954.73
2017-07-19T06:45:55.975Z,954.76
2017-07-19T06:46:55.985Z,954.73
2017-07-19T06:47:55.975Z,954.7
2017-07-19T06:48:55.975Z,954.71
2017-07-19T06:49:55.973Z,954.72
2017-07-19T06:50:55.975Z,954.76
2017-07-19T06:51:55.974Z,954.72
2017-07-19T06:52:55.976Z,954.73
2017-07-19T06:53:55.978Z,954.73
2017-07-19T06:54:55.979Z,954.72
2017-07-19T06:55:55.981Z,954.73
2017-07-19T06:56:55.982Z,954.75
2017-07-19T06:57:55.984Z,954.7
2017-07-19T06:58:55.986Z,954.66
2017-07-19T06:59:55.988Z,954.71
2017-07-19T07:00:56.006Z,954.72
2017-07-19T07:01:55.993Z,954.77
2017-07-19T07:02:56.012Z,954.72
2017-07-19T07:03:56.000Z,954.73
2017-07-19T07:04:56.004Z,954.75
2017-07-19T07:05:56.008Z,954.77
2017-07-19T07:06:56.011Z,954.74
2017-07-19T07:07:56.015Z,954.75
2017-07-19T07:08:56.020Z,954.76
2017-07-19T07:09:56.025Z,954.8
2017-07-19T07:10:56.032Z,954.76
2017-07-19T07:11:56.036Z,954.7
2017-07-19T07:12:56.042Z,954.72
2017-07-19T07:13:56.046Z,954.73
2017-07-19T07:14:56.073Z,954.75
2017-07-19T07:15:56.058Z,954.75
2017-07-19T07:16:56.064Z,954.79
2017-07-19T07:17:56.072Z,954.75
2017-07-19T07:18:56.091Z,954.77
2017-07-19T07:19:56.085Z,954.8
2017-07-19T07:20:56.094Z,954.83
2017-07-19T07:21:56.098Z,954.85
2017-07-19T07:22:56.106Z,954.9
2017-07-19T07:23:56.113Z,954.92
2017-07-19T07:24:56.121Z,954.81
2017-07-19T07:25:56.128Z,954.81
2017-07-19T07:26:56.138Z,954.8
2017-07-19T07:27:56.146Z,954.81
2017-07-19T07:28:56.171Z,954.81
2017-07-19T07:29:56.182Z,954.85
2017-07-19T07:30:56.172Z,954.91
2017-07-19T07:31:56.179Z,954.93
2017-07-19T07:32:56.188Z,955
2017-07-19T07:33:56.198Z,954.94
2017-07-19T07:34:56.208Z,955.09
2017-07-19T07:35:56.215Z,955.1
2017-07-19T07:36:56.226Z,955.13
2017-07-19T07:37:56.237Z,955.26
2017-07-19T07:38:56.246Z,955.32
2017-07-19T07:39:56.251Z,955.22
2017-07-19T07:40:56.262Z,955.14
2017-07-19T07:41:56.272Z,955.05
2017-07-19T07:42:56.282Z,955.02
2017-07-19T07:43:56.291Z,954.94
2017-07-19T07:44:56.301Z,954.88
2017-07-19T07:45:56.310Z,954.77
2017-07-19T07:46:56.340Z,954.7
2017-07-19T07:47:56.329Z,954.72
2017-07-19T07:48:56.340Z,954.71
2017-07-19T07:49:56.355Z,954.55
2017-07-19T07:50:56.359Z,954.49
2017-07-19T07:51:56.370Z,954.44
2017-07-19T07:52:56.385Z,954.47
2017-07-19T07:53:56.390Z,954.42
2017-07-19T07:54:56.403Z,954.44
2017-07-19T07:55:56.412Z,954.41
2017-07-19T07:56:56.421Z,954.41
2017-07-19T07:57:56.431Z,954.41
2017-07-19T07:58:56.441Z,954.45
2017-07-19T07:59:56.452Z,954.43
2017-07-19T08:00:56.461Z,954.45
2017-07-19T08:01:56.471Z,954.41
2017-07-19T08:02:56.481Z,954.4
2017-07-19T08:03:56.490Z,954.43
2017-07-19T08:04:56.502Z,954.42
2017-07-19T08:05:56.509Z,954.45
2017-07-19T08:06:56.519Z,954.43
2017-07-19T08:07:56.528Z,954.4
2017-07-19T08:08:56.537Z,954.45
2017-07-19T08:09:56.546Z,954.44
2017-07-19T08:10:56.554Z,954.4
2017-07-19T08:11:56.565Z,954.42
2017-07-19T08:12:56.572Z,954.4
2017-07-19T08:13:56.582Z,954.44
2017-07-19T08:14:56.589Z,954.44
2017-07-19T08:15:56.616Z,954.41
2017-07-19T08:16:56.606Z,954.44
2017-07-19T08:17:56.613Z,954.41
2017-07-19T08:19:56.650Z,954.39
2017-07-19T08:20:56.637Z,954.4
2017-07-19T08:21:56.644Z,954.43
2017-07-19T08:22:56.669Z,954.41
2017-07-19T08:23:56.657Z,954.43
2017-07-19T08:24:56.665Z,954.39
2017-07-19T08:25:56.673Z,954.41
2017-07-19T08:26:56.678Z,954.43
2017-07-19T08:27:56.699Z,954.37
2017-07-19T08:28:56.691Z,954.4
2017-07-19T08:29:56.699Z,954.41
2017-07-19T08:30:56.707Z,954.43
2017-07-19T08:31:56.730Z,954.43
2017-07-19T08:32:56.717Z,954.39
2017-07-19T08:33:56.723Z,954.41
2017-07-19T08:34:56.729Z,954.4
2017-07-19T08:35:56.735Z,954.4
2017-07-19T08:36:56.742Z,954.36
2017-07-19T08:37:56.747Z,954.36
2017-07-19T08:38:56.767Z,954.4
2017-07-19T08:39:56.768Z,954.37
2017-07-19T08:40:56.763Z,954.36
2017-07-19T08:41:56.769Z,954.38
2017-07-19T08:42:56.776Z,954.37
2017-07-19T08:43:56.786Z,954.38
2017-07-19T08:44:56.791Z,954.35
2017-07-19T08:45:56.792Z,954.34
2017-07-19T08:46:56.796Z,954.33
2017-07-19T08:47:56.802Z,954.33
2017-07-19T08:48:56.826Z,954.35
2017-07-19T08:49:56.812Z,954.3
2017-07-19T08:50:56.818Z,954.3
2017-07-19T08:51:56.823Z,954.3
2017-07-19T08:52:56.828Z,954.31
2017-07-19T08:53:56.833Z,954.29
2017-07-19T08:54:56.840Z,954.3
2017-07-19T08:55:56.844Z,954.31
2017-07-19T08:56:56.853Z,954.31
2017-07-19T08:57:56.873Z,954.32
2017-07-19T08:58:56.872Z,954.31
2017-07-19T08:59:56.864Z,954.29
2017-07-19T09:00:56.872Z,954.28
2017-07-19T09:01:56.874Z,954.27
2017-07-19T09:02:56.881Z,954.25
2017-07-19T09:03:56.885Z,954.25
2017-07-19T09:04:56.892Z,954.25
2017-07-19T09:05:56.895Z,954.26
2017-07-19T09:06:56.900Z,954.33
2017-07-19T09:07:56.906Z,954.27
2017-07-19T09:08:56.926Z,954.29
2017-07-19T09:09:56.914Z,954.33
2017-07-19T09:10:56.920Z,954.31
2017-07-19T09:11:56.926Z,954.32
2017-07-19T09:12:56.930Z,954.29
2017-07-19T09:13:56.935Z,954.28
2017-07-19T09:14:56.941Z,954.29
2017-07-19T09:15:56.945Z,954.31
2017-07-19T09:16:56.950Z,954.28
2017-07-19T09:17:56.956Z,954.3
2017-07-19T09:18:56.964Z,954.28
2017-07-19T09:19:56.967Z,954.27
2017-07-19T09:20:56.971Z,954.22
2017-07-19T09:21:56.986Z,954.22
2017-07-19T09:22:56.983Z,954.19
2017-07-19T09:23:56.989Z,954.12
2017-07-19T09:24:56.993Z,954.15
2017-07-19T09:25:56.998Z,954.11
2017-07-19T09:26:57.005Z,954.1
2017-07-19T09:27:57.011Z,954.09
2017-07-19T09:28:57.015Z,954.07
2017-07-19T09:29:57.021Z,954.09
2017-07-19T09:30:57.026Z,954.09
2017-07-19T09:31:57.034Z,954.07
2017-07-19T09:32:57.037Z,954.02
2017-07-19T09:33:57.043Z,954.01
2017-07-19T09:34:57.049Z,954.04
2017-07-19T09:35:57.056Z,954.04
2017-07-19T09:36:57.059Z,954.03
2017-07-19T09:37:57.067Z,954.02
2017-07-19T09:38:57.072Z,954
2017-07-19T09:39:57.077Z,954.05
2017-07-19T09:40:57.082Z,954
2017-07-19T09:41:57.091Z,953.97
2017-07-19T09:42:57.096Z,953.87
2017-07-19T09:43:57.102Z,953.89
2017-07-19T09:44:57.109Z,953.92
2017-07-19T09:45:57.113Z,953.95
2017-07-19T09:46:57.119Z,953.94
2017-07-19T09:47:57.125Z,953.91
2017-07-19T09:48:57.133Z,953.92
2017-07-19T09:49:57.138Z,953.86
2017-07-19T09:50:57.143Z,953.81
2017-07-19T09:51:57.150Z,953.85
2017-07-19T09:52:57.155Z,953.89
2017-07-19T09:53:57.163Z,953.91
2017-07-19T09:54:57.168Z,953.88
2017-07-19T09:55:57.175Z,953.89
2017-07-19T09:56:57.182Z,953.87
2017-07-19T09:57:57.187Z,953.89
2017-07-19T09:58:57.199Z,953.84
2017-07-19T09:59:57.202Z,953.88
2017-07-19T10:00:57.207Z,953.86
2017-07-19T10:01:57.213Z,953.88
2017-07-19T10:02:57.220Z,953.9
2017-07-19T10:03:57.226Z,953.91
2017-07-19T10:04:57.233Z,953.88
2017-07-19T10:05:57.242Z,953.89
2017-07-19T10:06:57.263Z,953.89
2017-07-19T10:07:57.253Z,953.87
2017-07-19T10:08:57.260Z,953.87
2017-07-19T10:09:57.267Z,953.87
2017-07-19T10:10:57.273Z,953.91
2017-07-19T10:11:57.299Z,953.9
2017-07-19T10:12:57.285Z,953.87
2017-07-19T10:13:57.293Z,953.85
2017-07-19T10:14:57.298Z,953.9
2017-07-19T10:15:57.305Z,953.89
2017-07-19T10:16:57.311Z,953.88
2017-07-19T10:17:57.318Z,953.87
2017-07-19T10:18:57.325Z,953.81
2017-07-19T10:19:57.343Z,953.81
2017-07-19T10:20:57.338Z,953.8
2017-07-19T10:21:57.343Z,953.81
2017-07-19T10:22:57.352Z,953.8
2017-07-19T10:23:57.356Z,953.77
2017-07-19T10:24:57.363Z,953.78
2017-07-19T10:25:57.370Z,953.74
2017-07-19T10:26:57.375Z,953.73
2017-07-19T10:27:57.382Z,953.74
2017-07-19T10:28:57.387Z,953.73
2017-07-19T10:29:57.395Z,953.69
2017-07-19T10:30:57.401Z,953.69
2017-07-19T10:31:57.405Z,953.66
2017-07-19T10:32:57.411Z,953.67
2017-07-19T10:33:57.417Z,953.66
2017-07-19T10:34:57.423Z,953.66
2017-07-19T10:35:57.428Z,953.64
2017-07-19T10:36:57.433Z,953.6
2017-07-19T10:37:57.439Z,953.58
2017-07-19T10:38:57.445Z,953.6
2017-07-19T10:39:57.451Z,953.5
2017-07-19T10:40:57.458Z,953.51
2017-07-19T10:41:57.463Z,953.49
2017-07-19T10:42:57.469Z,953.5
2017-07-19T10:43:57.476Z,953.47
2017-07-19T10:44:57.480Z,953.47
2017-07-19T10:45:57.486Z,953.47
2017-07-19T10:46:57.490Z,953.45
2017-07-19T10:47:57.499Z,953.51
2017-07-19T10:48:57.503Z,953.44
2017-07-19T10:49:57.507Z,953.43
2017-07-19T10:50:57.514Z,953.37
2017-07-19T10:51:57.520Z,953.37
2017-07-19T10:52:57.526Z,953.32
2017-07-19T10:53:57.531Z,953.28
2017-07-19T10:54:57.535Z,953.3
2017-07-19T10:55:57.544Z,953.3
2017-07-19T10:56:57.546Z,953.26
2017-07-19T10:57:57.553Z,953.24
2017-07-19T10:58:57.559Z,953.22
2017-07-19T10:59:57.565Z,953.3
2017-07-19T11:00:57.570Z,953.26
2017-07-19T11:01:57.575Z,953.22
2017-07-19T11:02:57.581Z,953.21
2017-07-19T11:03:57.587Z,953.2
2017-07-19T11:04:57.612Z,953.21
2017-07-19T11:05:57.598Z,953.22
2017-07-19T11:06:57.604Z,953.2
2017-07-19T11:07:57.610Z,953.18
2017-07-19T11:08:57.616Z,953.18
2017-07-19T11:09:57.621Z,953.18
2017-07-19T11:10:57.627Z,953.19
2017-07-19T11:11:57.633Z,953.15
2017-07-19T11:12:57.641Z,953.21
2017-07-19T11:13:57.646Z,953.2
2017-07-19T11:14:57.651Z,953.15
2017-07-19T11:15:57.657Z,953.19
2017-07-19T11:16:57.865Z,953.15
2017-07-19T11:17:57.671Z,953.12
2017-07-19T11:18:57.674Z,953.17
2017-07-19T11:19:57.680Z,953.15
2017-07-19T11:20:57.690Z,953.18
2017-07-19T11:21:57.693Z,953.17
2017-07-19T11:22:57.698Z,953.19
2017-07-19T11:23:57.704Z,953.17
2017-07-19T11:24:57.711Z,953.19
2017-07-19T11:25:57.714Z,953.18
2017-07-19T11:26:57.723Z,953.16
2017-07-19T11:27:57.726Z,953.21
2017-07-19T11:28:57.733Z,953.19
2017-07-19T11:29:57.740Z,953.19
2017-07-19T11:30:57.757Z,953.18
2017-07-19T11:31:57.752Z,953.18
2017-07-19T11:32:57.758Z,953.2
2017-07-19T11:33:57.786Z,953.21
2017-07-19T11:34:57.781Z,953.2
2017-07-19T11:35:57.775Z,953.22
2017-07-19T11:36:57.782Z,953.13
2017-07-19T11:37:57.788Z,953.16
2017-07-19T11:38:57.793Z,953.12
2017-07-19T11:39:57.799Z,953.14
2017-07-19T11:40:57.806Z,953.12
2017-07-19T11:41:57.815Z,953.14
2017-07-19T11:42:57.820Z,953.15
2017-07-19T11:43:57.827Z,953.08
2017-07-19T11:44:57.832Z,953.1
2017-07-19T11:45:57.845Z,953.1
2017-07-19T11:46:57.844Z,953.11
2017-07-19T11:47:57.851Z,953.08
2017-07-19T11:48:57.858Z,953.05
2017-07-19T11:49:57.866Z,953.03
2017-07-19T11:50:57.872Z,952.99
2017-07-19T11:51:57.878Z,952.98
2017-07-19T11:52:57.883Z,952.99
2017-07-19T11:53:57.889Z,952.97
2017-07-19T11:54:57.901Z,952.96
2017-07-19T11:55:57.901Z,952.98
2017-07-19T11:56:57.909Z,952.95
2017-07-19T11:57:57.919Z,952.93
2017-07-19T11:58:57.929Z,952.93
2017-07-19T11:59:57.928Z,952.91
2017-07-19T12:00:57.984Z,952.94
2017-07-19T12:01:57.958Z,952.91
2017-07-19T12:02:57.948Z,952.92
2017-07-19T12:03:57.953Z,952.85
2017-07-19T12:04:57.966Z,952.84
2017-07-19T12:05:57.968Z,952.85
2017-07-19T12:06:57.974Z,952.79
2017-07-19T12:07:57.980Z,952.81
2017-07-19T12:08:57.986Z,952.78
2017-07-19T12:09:57.992Z,952.78
2017-07-19T12:10:57.999Z,952.8
2017-07-19T12:11:58.006Z,952.8
2017-07-19T12:12:58.012Z,952.86
2017-07-19T12:13:58.017Z,952.84
2017-07-19T12:14:58.025Z,952.85
2017-07-19T12:15:58.030Z,952.88
2017-07-19T12:16:58.037Z,952.84
2017-07-19T12:17:58.042Z,952.8
2017-07-19T12:18:58.050Z,952.81
2017-07-19T12:19:58.061Z,952.79
2017-07-19T12:20:58.062Z,952.78
2017-07-19T12:21:58.068Z,952.73
2017-07-19T12:22:58.073Z,952.75
2017-07-19T12:23:58.081Z,952.76
2017-07-19T12:24:58.085Z,952.74
2017-07-19T12:25:58.113Z,952.72
2017-07-19T12:26:58.099Z,952.74
2017-07-19T12:27:58.103Z,952.75
2017-07-19T12:28:58.111Z,952.75
2017-07-19T12:29:58.115Z,952.71
2017-07-19T12:30:58.122Z,952.72
2017-07-19T12:31:58.126Z,952.72
2017-07-19T12:32:58.132Z,952.73
2017-07-19T12:33:58.140Z,952.77